Terminal Aerodrome Forecast
Issued by NWS Memphis, TN

Home | Current Version | Previous Version | Text Only | Print | Product List | Glossary On
Versions: 1 2 3 4 5 6 7 8 9 10 11 12 13 14 15 16 17 18 19 20
000
FTUS44 KMEG 290520
TAFJBR
TAF
KJBR 290520Z 2906/3006 02004KT P6SM BKN020
     FM290800 03005KT P6SM BKN015 OVC030
     FM291500 05006KT P6SM BKN150
     FM292100 03005KT P6SM BKN250=

USA.gov is the U.S. government's official web portal to all federal, state and local government web resources and services.